createdAt,value
2022-11-02T00:28:17.480Z,1
2022-11-02T00:58:18.173Z,1
2022-11-02T01:28:18.955Z,0.6
2022-11-02T01:58:20.238Z,0.5
2022-11-02T02:28:23.794Z,0.7
2022-11-02T02:58:23.482Z,0.6
2022-11-02T03:28:25.786Z,0.9
2022-11-02T03:58:23.502Z,1.2
2022-11-02T04:28:24.688Z,0.9
2022-11-02T04:58:29.644Z,1.1
2022-11-02T05:28:28.558Z,1
2022-11-02T05:58:27.136Z,0.8
2022-11-02T06:28:30.606Z,0.9
2022-11-02T06:58:30.556Z,0.8
2022-11-02T07:28:29.292Z,1.1
2022-11-02T07:58:29.958Z,1.3
2022-11-02T08:28:35.386Z,1.1
2022-11-02T08:58:33.741Z,0.9
2022-11-02T09:28:33.331Z,1
2022-11-02T09:58:37.696Z,0.9
2022-11-02T10:28:37.637Z,0.8
2022-11-02T10:58:41.788Z,0.9
2022-11-02T11:28:42.196Z,1.1
2022-11-02T11:58:49.552Z,1.2
2022-11-02T12:28:51.868Z,1
2022-11-02T12:58:46.370Z,1.1
2022-11-02T13:28:46.982Z,2.1
2022-11-02T13:58:50.723Z,1.7
2022-11-02T14:28:51.159Z,1.2
2022-11-02T14:58:54.299Z,1.5
2022-11-02T15:28:52.861Z,2.1
2022-11-02T15:59:00.172Z,2
2022-11-02T16:28:53.129Z,1.5
2022-11-02T16:59:07.048Z,1.5
2022-11-02T17:28:55.401Z,1.5
2022-11-02T17:58:55.672Z,1.4
2022-11-02T18:28:58.237Z,1.4
2022-11-02T18:59:05.061Z,1.4
2022-11-02T19:29:02.973Z,1.5
2022-11-02T19:59:02.094Z,1.4
2022-11-02T20:29:05.192Z,1.6
2022-11-02T20:59:01.394Z,1.6
2022-11-02T21:29:07.900Z,1.6
2022-11-02T21:59:04.932Z,1.7
2022-11-02T22:29:05.227Z,1.7
2022-11-02T22:59:04.942Z,1.9
2022-11-02T23:29:16.358Z,2
2022-11-02T23:59:11.769Z,1.5
